Etusivu
METAR-TAF:

METAR-TAF

Lentoasemat :

Chongqing, Kiina

Chongqing Jiangbein kansainvälinen lentoasema

Leveyspiiri: 29-31N, Pituuspiiri: 106-29E, korkeus merenpinnasta: 351 m

Tämänhetkinen sää

Tämä raportti tehtiin 19 minuuttia sitten, kello 21.00 UTC
Tuuli 8 kn idästä/kaakosta
Lämpötila 28°C
Kosteus 62%
Ilmanpaine 1003 hPa
Näkyvyys 10 km tai enemmän
ei pilviä alle 1500 m:ssä eikä cumulonimbus-pilviä

METAR: ZUCK 172100Z 11004MPS CAVOK 28/20 Q1003 NOSIG

Aika: 05:19 (21:19 UTC)

Sääennuste

Tämä raportti tehtiin 6 tuntia ja 19 minuuttia sitten, kello 15.00 UTC
Ennuste voimassa 17. päivästä klo 18 UTC - 18. päivään klo 18 UTC
Tuuli 6 kn etelästä/kaakosta
Näkyvyys: 6000 m
Hajanaisia pilviä 5000 ft:n korkeudessa

TAF: ZUCK 171500Z 1718/1818 15003MPS 6000 SCT050 TX37/1808Z TN26/1722Z

Säähavainnot ja -ennusteet yli 4000 lentoasemalta (METAR- ja TAF-raportit).

Käytössä olevat sääasemat on merkitty karttaan keltaisilla ja punaisilla pisteillä.

Aseta hiiri pisteen päälle nähdäksesi sääaseman nimen.

Klikkaa sitten nähdäksesi säähavainnot ja -ennusteet.

Kartan vaihtaminen: klikkaa mustalla rastilla varustettuja vihreitä pisteitä, niin voit zoomata sisään; viivalla varustettua vihreää pistettä, niin voit zoomata ulos tai vihreitä nuolia, niin pääset viereisille kartoille.


METAR-TAF: